Últimos sismos

MagnitudMag. Fecha y hora Epicentro localización: latitud, longitud loc.: lat., long. ProfundidadProf.
4.0 2018-09-23    08:07:36 155 km al SUROESTE de MAPASTEPEC, CHIS: 14.36°, -93.80° 15 km
4.0 2018-09-23    05:38:46 141 km al SUROESTE de MAPASTEPEC, CHIS: 14.45°, -93.71° 10 km
4.0 2018-09-23    04:22:19 23 km al SURESTE de TONALA, CHIS: 15.92°, -93.62° 102 km
4.1 2018-09-23    03:33:51 49 km al SURESTE de CRUCECITA, OAX: 15.51°, -95.77° 3 km
4.1 2018-09-22    23:18:37 70 km al SUR de SALINA CRUZ, OAX: 15.55°, -95.21° 31 km
4.5 2018-09-22    17:00:01 42 km al ESTE de MATIAS ROMERO, OAX: 16.89°, -94.64° 115 km
4.5 2018-09-22    15:51:54 71 km al SUR de PINOTEPA NACIONAL, OAX: 15.70°, -98.07° 26 km
3.6 2018-09-22    13:32:14 28 km al SUROESTE de APATZINGAN, MICH: 18.91°, -102.54° 46 km
3.8 2018-09-22    12:30:36 56 km al NORTE de MATIAS ROMERO, OAX: 17.38°, -95.05° 133 km
3.6 2018-09-22    12:29:32 15 km al NORESTE de S BLAS ATEMPA, OAX: 16.45°, -95.18° 55 km
4.0 2018-09-22    12:02:39 28 km al SURESTE de ACATLAN DE OSORIO, PUE: 18.09°, -97.81° 59 km
3.8 2018-09-22    11:55:00 25 km al NOROESTE de CINTALAPA, CHIS: 16.78°, -93.94° 162 km
4.1 2018-09-22    11:42:51 156 km al SUROESTE de MAPASTEPEC, CHIS: 14.41°, -93.89° 16 km
3.9 2018-09-22    11:13:55 70 km al SUR de SALINA CRUZ, OAX: 15.57°, -95.35° 13 km
3.9 2018-09-22    10:34:00 138 km al SUROESTE de PIJIJIAPAN, CHIS: 14.91°, -94.22° 19 km
3.5 2018-09-22    10:29:25 13 km al NORESTE de ATOYAC DE ALVAREZ, GRO: 17.28°, -100.34° 52 km
3.8 2018-09-22    10:17:49 32 km al SUR de TONALA, CHIS: 15.80°, -93.73° 97 km
4.1 2018-09-22    09:27:57 21 km al NORTE de PETATLAN, GRO: 17.72°, -101.32° 49 km
3.5 2018-09-22    09:25:06 5 km al SUROESTE de PINOTEPA NACIONAL, OAX: 16.30°, -98.07° 27 km
3.9 2018-09-22    08:48:21 55 km al SURESTE de COALCOMAN, MICH: 18.34°, -102.93° 59 km
4.0 2018-09-22    08:05:23 45 km al SURESTE de SALINA CRUZ, OAX: 15.86°, -94.94° 10 km
3.2 2018-09-22    07:23:27 36 km al NORESTE de MANZANILLO, COL: 19.36°, -104.18° 10 km
3.5 2018-09-22    07:15:55 55 km al ESTE de SAN MARCOS, GRO: 16.92°, -98.89° 55 km
3.6 2018-09-22    07:12:43 48 km al OESTE de CIHUATLAN, JAL: 19.28°, -105.02° 14 km
3.7 2018-09-22    06:52:21 73 km al SUROESTE de OMETEPEC, GRO: 16.27°, -98.93° 7 km
3.8 2018-09-22    06:40:53 83 km al SUROESTE de OMETEPEC, GRO: 16.15°, -98.95° 17 km
3.9 2018-09-22    06:28:54 112 km al SURESTE de SALINA CRUZ, OAX: 15.34°, -94.61° 16 km
3.4 2018-09-22    06:27:24 39 km al SUROESTE de TEHUANTEPEC, OAX: 16.16°, -95.56° 84 km
3.4 2018-09-22    06:21:20 18 km al NOROESTE de COQUIMATLAN, COL: 19.27°, -103.97° 22 km
3.9 2018-09-22    06:19:02 43 km al NORTE de MATIAS ROMERO, OAX: 17.25°, -94.96° 130 km
3.8 2018-09-22    05:30:13 53 km al SUR de PINOTEPA NACIONAL, OAX: 15.86°, -98.11° 28 km
3.7 2018-09-22    04:52:41 101 km al SURESTE de SALINA CRUZ, OAX: 15.36°, -94.80° 18 km
2.9 2018-09-22    04:24:55 10 km al SUROESTE de TEPETLIXPA, MEX: 18.98°, -98.90° 4 km
3.9 2018-09-22    04:10:39 14 km al SUROESTE de J RODRIGUEZ CLARA, VER: 17.87°, -95.45° 11 km
3.8 2018-09-22    03:37:18 10 km al ESTE de MATIAS ROMERO, OAX: 16.86°, -94.95° 104 km
3.7 2018-09-22    03:14:02 35 km al NOROESTE de RIO GRANDE, OAX: 16.28°, -97.61° 3 km
3.7 2018-09-22    01:58:35 36 km al SURESTE de ARCELIA, GRO: 18.02°, -100.13° 58 km
3.8 2018-09-22    01:50:50 98 km al SUROESTE de TONALA, CHIS: 15.39°, -94.32° 16 km
4.0 2018-09-22    01:41:21 56 km al SUROESTE de RIO GRANDE, OAX: 15.82°, -97.92° 17 km
3.5 2018-09-22    01:39:51 54 km al SUROESTE de RIO GRANDE, OAX: 15.80°, -97.89° 16 km
3.9 2018-09-22    01:38:07 55 km al SUROESTE de RIO GRANDE, OAX: 15.85°, -97.92° 16 km
4.1 2018-09-22    01:35:26 48 km al SUROESTE de RIO GRANDE, OAX: 15.85°, -97.85° 25 km
4.1 2018-09-22    01:31:15 52 km al SUR de PINOTEPA NACIONAL, OAX: 15.87°, -97.98° 25 km
4.1 2018-09-22    01:30:03 98 km al SURESTE de SALINA CRUZ, OAX: 15.38°, -94.81° 16 km
3.5 2018-09-22    01:17:58 18 km al ESTE de SALINA CRUZ, OAX: 16.18°, -95.03° 11 km
3.9 2018-09-22    00:42:16 14 km al SUROESTE de CD IXTEPEC, OAX: 16.46°, -95.18° 63 km
3.8 2018-09-22    00:32:50 111 km al SURESTE de SALINA CRUZ, OAX: 15.27°, -94.78° 16 km
4.0 2018-09-22    00:27:28 42 km al SUROESTE de ISLA, VER: 17.67°, -95.67° 109 km
4.2 2018-09-22    00:19:00 108 km al SURESTE de SALINA CRUZ, OAX: 15.31°, -94.76° 16 km
3.6 2018-09-22    00:09:27 13 km al SUROESTE de CD IXTEPEC, OAX: 16.49°, -95.20° 14 km

Sismo de magnitud menor de 4.0

Sismo de magnitud entre 4.0 y 5.9

Sismo de magnitud igual o mayor de 6.0

Si deseas más información,
consulta nuestro

Catálogo de sismos